Time;durP1;ratioP1;P1;durP2;ratioP2;P2;SDS_P1;SDS_P2;PMS_P1;PMS_P2;Temp;Humidity;BMP_temperature;BMP_pressure;BME280_temperature;BME280_humidity;BME280_pressure;Samples;Min_cycle;Max_cycle;Signal;HPM_P1;HPM_P2
2023/10/14 00:02:03;;;;;;;8.35;3.95;;;;;;;22.28;45.68;99662.34;4238113;27;20050;-66
2023/10/14 00:04:09;;;;;;;10.90;4.75;;;;;;;22.42;45.52;99665.22;4229119;27;20520;-65
2023/10/14 00:06:18;;;;;;;11.23;5.38;;;;;;;22.38;45.85;99657.50;4233139;27;20100;-65
2023/10/14 00:08:20;;;;;;;7.40;4.65;;;;;;;22.34;45.92;99658.56;4232429;28;20038;-65
2023/10/14 00:10:25;;;;;;;13.25;4.68;;;;;;;22.38;46.06;99660.16;4231849;27;20051;-66
2023/10/14 00:12:28;;;;;;;9.90;4.57;;;;;;;22.30;46.21;99658.69;4229989;28;20088;-65
2023/10/14 00:14:35;;;;;;;8.77;4.28;;;;;;;22.35;46.58;99668.25;4230481;27;20035;-65
2023/10/14 00:16:41;;;;;;;11.50;4.22;;;;;;;22.35;46.34;99663.81;4230160;28;20036;-65
2023/10/14 00:18:48;;;;;;;16.23;5.07;;;;;;;22.41;46.13;99658.19;4231268;27;20040;-65
2023/10/14 00:20:51;;;;;;;11.98;5.13;;;;;;;22.39;46.30;99661.88;4233933;27;20039;-65
2023/10/14 00:22:56;;;;;;;10.75;4.72;;;;;;;22.34;46.69;99666.53;4230981;27;20050;-65
2023/10/14 00:24:58;;;;;;;10.57;4.47;;;;;;;22.50;46.31;99656.91;4229881;28;20689;-65
2023/10/14 00:27:07;;;;;;;11.75;4.78;;;;;;;22.52;46.70;99649.75;4230796;28;20035;-65
2023/10/14 00:29:19;;;;;;;11.18;4.82;;;;;;;22.44;46.83;99646.59;4226381;28;20674;-65
2023/10/14 00:31:23;;;;;;;14.75;4.55;;;;;;;22.45;46.75;99658.94;4227000;28;20032;-65
2023/10/14 00:33:27;;;;;;;7.05;4.40;;;;;;;22.41;46.82;99647.59;4231298;27;20031;-65
2023/10/14 00:35:29;;;;;;;11.75;5.53;;;;;;;22.49;46.68;99649.91;4230812;27;21076;-65
2023/10/14 00:37:32;;;;;;;12.27;4.97;;;;;;;22.48;46.91;99642.88;4229734;28;21039;-66
2023/10/14 00:39:37;;;;;;;10.38;4.72;;;;;;;22.40;47.10;99639.75;4228808;28;20036;-65
2023/10/14 00:41:42;;;;;;;12.52;5.85;;;;;;;22.42;47.35;99625.50;4229611;28;20035;-66
2023/10/14 00:43:45;;;;;;;10.35;4.80;;;;;;;22.35;47.17;99632.03;4224857;27;20114;-65
2023/10/14 00:45:49;;;;;;;10.25;5.03;;;;;;;22.27;47.41;99636.81;4246013;27;20088;-65
2023/10/14 00:47:51;;;;;;;10.73;4.53;;;;;;;22.33;47.27;99633.03;4243482;27;20065;-65
2023/10/14 00:49:55;;;;;;;14.50;4.97;;;;;;;22.30;47.33;99639.31;4225810;28;20042;-65
2023/10/14 00:52:06;;;;;;;9.77;5.20;;;;;;;22.26;47.47;99635.94;4246204;27;20455;-65
2023/10/14 00:54:11;;;;;;;8.18;4.63;;;;;;;22.23;47.58;99640.53;4245654;27;20047;-65
2023/10/14 00:56:18;;;;;;;10.35;4.55;;;;;;;22.23;47.60;99638.72;4246175;27;20421;-65
2023/10/14 00:58:23;;;;;;;11.02;5.45;;;;;;;22.28;47.55;99638.50;4229810;28;20501;-65
2023/10/14 01:00:34;;;;;;;8.68;5.25;;;;;;;22.35;47.41;99632.03;4213946;28;20078;-65
2023/10/14 01:02:38;;;;;;;8.80;5.03;;;;;;;22.25;47.45;99641.31;4241710;27;20130;-65
2023/10/14 01:04:51;;;;;;;10.65;5.32;;;;;;;22.29;47.89;99633.13;4228496;28;20401;-65
2023/10/14 01:07:02;;;;;;;14.00;5.15;;;;;;;22.30;47.86;99647.25;4224593;28;20042;-65
2023/10/14 01:09:13;;;;;;;13.80;5.13;;;;;;;22.39;47.94;99633.59;4226244;28;20613;-65
2023/10/14 01:11:17;;;;;;;14.25;5.63;;;;;;;22.34;47.95;99632.09;4232286;28;20032;-65
2023/10/14 01:13:23;;;;;;;21.98;5.47;;;;;;;22.34;48.12;99616.22;4229553;28;20039;-65
2023/10/14 01:15:30;;;;;;;15.75;5.45;;;;;;;22.37;47.92;99627.53;4228761;28;20062;-65
2023/10/14 01:17:33;;;;;;;36.92;6.80;;;;;;;22.33;48.25;99630.38;4228567;28;21029;-65
2023/10/14 01:19:37;;;;;;;30.98;7.07;;;;;;;22.38;48.29;99626.56;4229378;28;20551;-65
2023/10/14 01:21:41;;;;;;;22.83;6.55;;;;;;;22.47;48.08;99615.56;4236310;27;20134;-65
2023/10/14 01:23:54;;;;;;;11.27;5.47;;;;;;;22.53;48.12;99622.34;4234550;27;20628;-65
2023/10/14 01:26:04;;;;;;;18.42;6.32;;;;;;;22.55;48.06;99614.31;4238710;27;20062;-65
2023/10/14 01:28:11;;;;;;;11.65;5.45;;;;;;;22.51;48.28;99618.91;4235970;27;20043;-65
2023/10/14 01:30:19;;;;;;;18.58;6.45;;;;;;;22.58;48.34;99611.53;4230441;27;20460;-65
2023/10/14 01:32:37;;;;;;;15.30;5.97;;;;;;;22.63;48.24;99609.50;4231546;27;20043;-65
2023/10/14 01:34:42;;;;;;;14.68;5.88;;;;;;;22.62;48.46;99608.63;4233937;27;20031;-65
2023/10/14 01:36:46;;;;;;;13.48;6.05;;;;;;;22.63;48.52;99614.78;4232545;27;20036;-65
2023/10/14 01:38:57;;;;;;;;;;;;;;;22.56;48.57;99614.25;4230088;28;20085;-65
2023/10/14 01:41:04;;;;;;;16.02;6.07;;;;;;;22.59;48.63;99607.91;4232963;27;20353;-65
2023/10/14 01:43:08;;;;;;;22.83;6.70;;;;;;;22.55;48.79;99609.03;4235290;27;20062;-65
2023/10/14 01:45:12;;;;;;;24.70;6.85;;;;;;;22.56;48.87;99611.59;4230397;27;20047;-65
2023/10/14 01:47:17;;;;;;;18.30;5.72;;;;;;;22.62;48.58;99600.69;4229688;27;20063;-65
2023/10/14 01:49:21;;;;;;;;;;;;;;;22.54;49.02;99599.34;4234314;27;20437;-65
2023/10/14 01:51:26;;;;;;;17.45;5.97;;;;;;;22.53;48.92;99597.63;4233932;27;19959;-65
2023/10/14 01:53:32;;;;;;;13.23;6.35;;;;;;;22.58;48.72;99591.19;4233268;28;20088;-65
2023/10/14 01:55:37;;;;;;;19.45;5.95;;;;;;;22.61;48.83;99585.72;4234633;27;20092;-65
2023/10/14 01:57:40;;;;;;;;;;;;;;;22.66;48.38;99578.41;4231333;28;20038;-65
2023/10/14 01:59:44;;;;;;;14.18;5.85;;;;;;;22.64;48.60;99597.97;4235164;27;19930;-65
2023/10/14 02:01:47;;;;;;;20.77;7.00;;;;;;;22.62;48.74;99591.91;4232511;27;20548;-66
2023/10/14 02:03:51;;;;;;;15.50;5.80;;;;;;;22.66;48.47;99583.72;4233973;27;20039;-65
2023/10/14 02:05:54;;;;;;;13.45;5.63;;;;;;;22.67;48.47;99585.41;4231879;27;20031;-65
2023/10/14 02:07:56;;;;;;;15.43;5.93;;;;;;;22.67;48.94;99588.06;4230450;28;20034;-65
2023/10/14 02:09:59;;;;;;;22.70;5.88;;;;;;;22.59;48.67;99584.94;4229526;28;20035;-65
2023/10/14 02:12:07;;;;;;;19.58;6.07;;;;;;;22.52;48.92;99591.47;4228741;27;20031;-65
2023/10/14 02:14:10;;;;;;;;;;;;;;;22.44;49.18;99577.75;4231171;28;20439;-65
2023/10/14 02:16:13;;;;;;;17.65;5.85;;;;;;;22.44;49.21;99593.63;4232997;27;19923;-65
2023/10/14 02:18:20;;;;;;;19.48;6.43;;;;;;;22.43;49.14;99582.19;4232425;27;20081;-65
2023/10/14 02:20:28;;;;;;;14.30;6.10;;;;;;;22.48;48.98;99596.06;4230391;28;20054;-65
2023/10/14 02:22:30;;;;;;;19.25;5.78;;;;;;;22.51;49.28;99589.75;4229780;28;20070;-65
2023/10/14 02:24:33;;;;;;;23.58;6.88;;;;;;;22.43;49.25;99599.91;4230062;28;20039;-65
2023/10/14 02:26:35;;;;;;;16.55;6.65;;;;;;;22.43;49.24;99591.94;4243891;27;20937;-65
2023/10/14 02:28:40;;;;;;;20.33;6.38;;;;;;;22.39;49.17;99596.53;4233878;27;20142;-65
2023/10/14 02:30:51;;;;;;;13.98;5.78;;;;;;;22.44;49.57;99604.22;4228505;28;20027;-65
2023/10/14 02:32:57;;;;;;;13.57;6.07;;;;;;;22.47;49.37;99606.72;4237852;27;20035;-65
2023/10/14 02:35:00;;;;;;;19.73;6.25;;;;;;;22.39;49.47;99607.13;4213330;28;20063;-65
2023/10/14 02:37:06;;;;;;;15.50;6.28;;;;;;;22.43;49.45;99602.53;4229583;28;20039;-65
2023/10/14 02:39:14;;;;;;;14.15;6.15;;;;;;;22.41;49.43;99607.88;4219622;27;20039;-65
2023/10/14 02:41:17;;;;;;;14.68;6.47;;;;;;;22.44;49.45;99614.81;4228918;28;20058;-65
2023/10/14 02:43:21;;;;;;;12.50;5.63;;;;;;;22.35;49.57;99615.28;4227069;27;20032;-65
2023/10/14 02:45:27;;;;;;;14.60;5.63;;;;;;;22.40;49.34;99607.97;4232411;27;20043;-64
2023/10/14 02:47:37;;;;;;;15.43;6.20;;;;;;;22.40;49.59;99595.59;4232583;27;20070;-65
2023/10/14 02:49:40;;;;;;;13.75;5.53;;;;;;;22.40;49.26;99597.38;4231700;27;20043;-65
2023/10/14 02:51:44;;;;;;;19.40;5.50;;;;;;;22.40;49.55;99602.66;4229758;28;20046;-65
2023/10/14 02:53:46;;;;;;;13.75;6.30;;;;;;;22.37;49.57;99593.09;4231251;28;20351;-65
2023/10/14 02:56:04;;;;;;;16.80;6.20;;;;;;;22.34;49.72;99598.56;4230733;27;20461;-65
2023/10/14 02:58:07;;;;;;;17.52;6.25;;;;;;;22.41;49.56;99594.63;4230700;28;20036;-65
2023/10/14 03:00:11;;;;;;;18.45;5.70;;;;;;;22.42;49.82;99590.22;4228369;27;20028;-65
2023/10/14 03:02:25;;;;;;;13.80;5.78;;;;;;;22.30;49.94;99599.59;4228645;27;20499;-65
2023/10/14 03:04:28;;;;;;;11.43;5.80;;;;;;;22.34;49.86;99587.06;4234278;27;20421;-65
2023/10/14 03:06:31;;;;;;;17.73;5.90;;;;;;;22.39;49.82;99588.56;4230968;27;20034;-65
2023/10/14 03:08:34;;;;;;;12.57;5.45;;;;;;;22.37;49.84;99586.94;4231947;27;20065;-65
2023/10/14 03:10:40;;;;;;;15.52;5.65;;;;;;;22.39;49.46;99588.56;4230663;27;20126;-65
2023/10/14 03:12:48;;;;;;;14.73;5.97;;;;;;;22.39;49.42;99593.88;4228814;28;20031;-64
2023/10/14 03:14:52;;;;;;;17.45;5.90;;;;;;;22.34;49.85;99593.25;4229105;27;20032;-65
2023/10/14 03:16:55;;;;;;;12.95;5.68;;;;;;;22.38;49.77;99583.34;4233941;27;20489;-65
2023/10/14 03:19:00;;;;;;;14.07;6.55;;;;;;;22.37;49.90;99582.50;4226119;28;20105;-65
2023/10/14 03:21:09;;;;;;;10.90;5.45;;;;;;;22.27;50.04;99586.50;4236306;27;20042;-65
2023/10/14 03:23:18;;;;;;;14.13;5.50;;;;;;;22.27;50.25;99587.34;4227786;28;20044;-65
2023/10/14 03:25:23;;;;;;;10.75;5.75;;;;;;;22.23;50.23;99596.38;4230958;27;20495;-65
2023/10/14 03:27:32;;;;;;;12.43;5.60;;;;;;;22.17;50.64;99599.31;4233698;27;20035;-64
2023/10/14 03:29:36;;;;;;;14.77;5.40;;;;;;;22.17;50.57;99599.31;4231717;27;20035;-65
2023/10/14 03:31:41;;;;;;;12.35;5.85;;;;;;;22.15;50.48;99603.81;4235257;27;20477;-65
2023/10/14 03:33:44;;;;;;;15.85;5.82;;;;;;;22.10;50.21;99608.47;4232524;27;20035;-65
2023/10/14 03:35:56;;;;;;;19.55;5.40;;;;;;;22.05;50.30;99599.88;4229251;27;20036;-65
2023/10/14 03:38:05;;;;;;;23.73;5.57;;;;;;;21.98;50.56;99604.63;4228405;27;20041;-65
2023/10/14 03:42:32;;;;;;;17.98;5.65;;;;;;;21.91;50.87;99622.56;4229991;28;20043;-65
2023/10/14 03:44:35;;;;;;;12.85;4.93;;;;;;;21.89;51.06;99619.13;4231664;27;20465;-65
2023/10/14 03:46:42;;;;;;;11.35;5.25;;;;;;;21.91;51.58;99627.00;4230336;28;20469;-65
2023/10/14 03:48:48;;;;;;;15.10;5.25;;;;;;;21.86;52.05;99631.63;4231431;27;20039;-65
2023/10/14 03:50:52;;;;;;;14.35;5.65;;;;;;;21.79;52.41;99646.94;4232002;27;20038;-64
2023/10/14 03:52:54;;;;;;;35.75;6.05;;;;;;;21.81;51.98;99642.44;4227541;28;20050;-64
2023/10/14 03:54:57;;;;;;;12.48;4.88;;;;;;;21.79;51.74;99634.56;4228763;28;20043;-65
2023/10/14 03:57:03;;;;;;;16.17;5.03;;;;;;;21.71;51.91;99639.38;4230539;28;20088;-64
2023/10/14 03:59:06;;;;;;;12.55;5.25;;;;;;;21.64;52.08;99637.94;4231122;28;20050;-64
2023/10/14 04:01:09;;;;;;;16.92;5.53;;;;;;;21.52;52.31;99639.31;4228322;28;20036;-64
2023/10/14 04:03:11;;;;;;;22.02;5.03;;;;;;;21.52;52.46;99628.72;4231380;28;20035;-64
2023/10/14 04:05:19;;;;;;;17.92;5.03;;;;;;;21.49;52.73;99634.13;4232296;27;20122;-64
2023/10/14 04:07:28;;;;;;;14.90;4.72;;;;;;;21.39;52.90;99638.97;4231370;27;20036;-64
2023/10/14 04:09:36;;;;;;;14.40;4.68;;;;;;;21.40;52.95;99650.41;4232166;27;20038;-64
2023/10/14 04:11:39;;;;;;;12.25;4.47;;;;;;;21.23;53.60;99651.13;4230394;27;20054;-65
2023/10/14 04:13:51;;;;;;;14.15;4.55;;;;;;;21.23;53.58;99652.00;4234440;27;20035;-64
2023/10/14 04:15:54;;;;;;;14.63;4.85;;;;;;;21.17;53.70;99652.25;4228638;27;20044;-64
2023/10/14 04:18:12;;;;;;;11.13;4.53;;;;;;;21.14;53.67;99641.81;4230800;27;20528;-64
2023/10/14 04:20:21;;;;;;;8.98;3.83;;;;;;;21.26;53.42;99649.22;4226682;28;20547;-64
2023/10/14 04:22:31;;;;;;;12.57;3.97;;;;;;;21.25;53.50;99647.50;4229224;28;20081;-64
2023/10/14 04:24:45;;;;;;;11.77;4.18;;;;;;;21.21;53.58;99650.34;4230956;28;20039;-64
2023/10/14 04:26:49;;;;;;;12.27;3.30;;;;;;;21.13;53.47;99655.09;4225555;28;20049;-64
2023/10/14 04:28:54;;;;;;;8.85;3.38;;;;;;;21.08;53.49;99657.94;4230517;28;20093;-64
2023/10/14 04:31:00;;;;;;;8.95;4.03;;;;;;;21.10;53.62;99658.75;4231059;28;20031;-64
2023/10/14 04:33:18;;;;;;;6.88;3.15;;;;;;;21.12;53.63;99663.97;4229466;28;20055;-64
2023/10/14 04:35:23;;;;;;;11.02;4.22;;;;;;;21.15;53.42;99664.69;4229388;28;20069;-64
2023/10/14 04:37:50;;;;;;;5.88;3.25;;;;;;;21.09;53.63;99654.38;4230346;28;20057;-64
2023/10/14 04:39:58;;;;;;;9.10;3.20;;;;;;;21.02;53.52;99668.75;4230580;28;20032;-64
2023/10/14 04:44:21;;;;;;;6.22;2.53;;;;;;;20.95;53.63;99665.50;4226393;28;20096;-64
2023/10/14 04:46:32;;;;;;;9.27;2.90;;;;;;;20.90;54.04;99665.69;4230447;28;20032;-64
2023/10/14 04:48:36;;;;;;;9.55;2.22;;;;;;;20.88;54.09;99672.84;4230384;28;20493;-64
2023/10/14 04:50:39;;;;;;;10.30;2.92;;;;;;;20.86;54.19;99669.38;4230526;28;20036;-65
2023/10/14 04:52:48;;;;;;;9.20;2.70;;;;;;;20.90;54.00;99670.13;4230083;27;20028;-64
2023/10/14 04:54:54;;;;;;;7.53;2.58;;;;;;;21.00;54.01;99676.75;4227194;28;20031;-65
2023/10/14 04:56:58;;;;;;;8.45;2.47;;;;;;;20.78;54.51;99675.91;4226516;27;20035;-64
2023/10/14 04:59:05;;;;;;;12.93;2.60;;;;;;;20.83;54.33;99680.06;4228363;28;20045;-65
2023/10/14 05:01:17;;;;;;;8.13;2.45;;;;;;;20.83;54.57;99689.81;4229620;28;20051;-64
2023/10/14 05:03:22;;;;;;;10.68;2.97;;;;;;;20.73;54.62;99689.31;4233547;27;20499;-64
2023/10/14 05:05:30;;;;;;;8.68;2.40;;;;;;;20.66;54.93;99679.88;4233102;28;20061;-65
2023/10/14 05:07:35;;;;;;;9.10;2.83;;;;;;;20.68;54.87;99688.63;4230578;28;20032;-66
2023/10/14 05:09:39;;;;;;;13.98;3.20;;;;;;;20.71;54.77;99692.00;4229829;28;20036;-65
2023/10/14 05:11:47;;;;;;;7.55;2.58;;;;;;;20.74;54.81;99693.66;4229576;28;20035;-65
2023/10/14 05:14:03;;;;;;;11.65;2.55;;;;;;;20.78;54.73;99697.91;4234867;28;20027;-64
2023/10/14 05:16:16;;;;;;;6.78;2.35;;;;;;;20.65;55.04;99712.50;4224258;28;20078;-65
2023/10/14 05:18:27;;;;;;;8.57;2.47;;;;;;;20.61;55.22;99708.25;4224760;28;20039;-65
2023/10/14 05:20:54;;;;;;;9.68;2.88;;;;;;;20.51;55.50;99716.53;4227251;28;20043;-65
2023/10/14 05:22:53;;;;;;;7.95;2.28;;;;;;;20.46;55.57;99714.97;4228244;28;20039;-66
2023/10/14 05:25:03;;;;;;;7.50;2.42;;;;;;;20.49;55.63;99723.66;4228214;28;20031;-64
2023/10/14 05:27:08;;;;;;;6.38;2.53;;;;;;;20.55;55.33;99733.13;4225406;28;20036;-64
2023/10/14 05:29:16;;;;;;;;;;;;;;;20.58;55.34;99723.28;4232309;28;20100;-64
2023/10/14 05:31:20;;;;;;;4.10;1.98;;;;;;;20.56;55.52;99734.84;4229570;28;19974;-64
2023/10/14 05:33:22;;;;;;;4.75;2.13;;;;;;;20.50;55.41;99740.34;4234418;28;20489;-64
2023/10/14 05:35:25;;;;;;;6.45;2.17;;;;;;;20.42;55.73;99734.53;4231495;28;20055;-64
2023/10/14 05:37:28;;;;;;;9.32;2.10;;;;;;;20.41;55.89;99738.91;4232580;28;20031;-64
2023/10/14 05:39:36;;;;;;;9.57;2.72;;;;;;;20.32;56.38;99739.28;4229702;28;20139;-64
2023/10/14 05:41:41;;;;;;;8.57;1.85;;;;;;;20.37;56.27;99747.88;4231166;28;20059;-64
2023/10/14 05:43:43;;;;;;;;;;;;;;;20.18;56.61;99751.22;4230623;28;20035;-65
2023/10/14 05:45:46;;;;;;;11.98;2.50;;;;;;;20.22;56.64;99758.09;4230999;28;19924;-64
2023/10/14 05:47:49;;;;;;;14.43;2.50;;;;;;;20.23;56.77;99770.38;4231310;28;20039;-64
2023/10/14 05:49:52;;;;;;;7.97;2.35;;;;;;;20.26;56.81;99771.19;4229203;28;20085;-64
2023/10/14 05:51:55;;;;;;;12.77;2.80;;;;;;;20.24;56.81;99776.53;4229164;28;20470;-65
2023/10/14 05:53:58;;;;;;;6.88;1.98;;;;;;;20.18;57.23;99785.53;4227716;28;20035;-64
2023/10/14 05:56:09;;;;;;;13.30;2.42;;;;;;;20.21;57.04;99788.06;4229378;28;20036;-64
2023/10/14 05:58:14;;;;;;;8.23;2.22;;;;;;;20.28;56.99;99795.75;4228862;28;20537;-64
2023/10/14 06:00:25;;;;;;;6.03;2.10;;;;;;;20.26;56.91;99806.34;4229241;28;20052;-65
2023/10/14 06:02:29;;;;;;;9.77;2.10;;;;;;;20.26;56.97;99811.63;4229947;28;20603;-64
2023/10/14 06:04:32;;;;;;;6.45;1.73;;;;;;;20.20;57.28;99815.34;4227928;28;20044;-64
2023/10/14 06:06:35;;;;;;;6.45;2.13;;;;;;;20.18;57.46;99819.84;4230812;27;20081;-64
2023/10/14 06:08:38;;;;;;;9.45;1.90;;;;;;;20.19;57.36;99839.16;4232752;28;20028;-65
2023/10/14 06:10:41;;;;;;;6.40;2.00;;;;;;;20.26;57.36;99839.81;4231936;27;20581;-64
2023/10/14 06:12:45;;;;;;;5.97;2.10;;;;;;;20.16;57.22;99842.75;4235035;27;20086;-65
2023/10/14 06:14:49;;;;;;;5.22;2.45;;;;;;;20.12;57.49;99843.81;4232029;28;20281;-66
2023/10/14 06:16:52;;;;;;;9.68;2.08;;;;;;;20.09;57.62;99843.91;4229652;27;20032;-65
2023/10/14 06:18:54;;;;;;;8.93;1.90;;;;;;;20.19;57.45;99852.34;4230741;27;20390;-65
2023/10/14 06:20:57;;;;;;;6.90;1.92;;;;;;;20.22;57.10;99855.75;4231204;27;20369;-65
2023/10/14 06:22:59;;;;;;;7.00;1.80;;;;;;;20.19;57.26;99855.88;4232094;27;20028;-65
2023/10/14 06:25:03;;;;;;;5.32;2.08;;;;;;;20.14;57.65;99868.34;4233348;27;20517;-65
2023/10/14 06:27:08;;;;;;;9.68;1.58;;;;;;;20.11;57.75;99876.38;4231192;27;20068;-65
2023/10/14 06:29:13;;;;;;;7.18;1.98;;;;;;;20.15;57.82;99877.13;4234374;27;20042;-65
2023/10/14 06:31:18;;;;;;;4.93;1.35;;;;;;;20.25;57.58;99885.59;4233330;27;20043;-65
2023/10/14 06:33:26;;;;;;;7.18;1.30;;;;;;;20.23;57.83;99889.13;4233454;27;20542;-65
2023/10/14 06:35:28;;;;;;;9.80;2.15;;;;;;;20.27;58.14;99896.94;4234241;27;20047;-65
2023/10/14 06:37:40;;;;;;;5.75;2.08;;;;;;;20.12;59.07;99903.63;4229579;28;20027;-65
2023/10/14 06:39:43;;;;;;;9.43;1.50;;;;;;;20.03;60.08;99910.06;4230993;28;20042;-65
2023/10/14 06:41:45;;;;;;;10.27;1.52;;;;;;;19.85;60.94;99914.19;4231550;28;20535;-65
2023/10/14 06:43:55;;;;;;;8.45;1.50;;;;;;;19.68;62.08;99925.25;4227973;27;20093;-65
2023/10/14 06:45:59;;;;;;;7.07;1.52;;;;;;;19.57;62.52;99922.13;4225123;27;20114;-65
2023/10/14 06:48:05;;;;;;;5.75;1.48;;;;;;;19.42;63.28;99919.06;4231408;27;20035;-65
2023/10/14 06:50:12;;;;;;;4.07;1.50;;;;;;;19.42;63.34;99934.88;4227162;27;20039;-65
2023/10/14 06:52:18;;;;;;;5.18;1.50;;;;;;;19.51;63.43;99928.44;4229228;28;20496;-65
2023/10/14 06:54:25;;;;;;;4.20;1.90;;;;;;;19.57;63.53;99938.78;4221828;28;20040;-65
2023/10/14 06:56:29;;;;;;;5.03;1.60;;;;;;;19.53;63.74;99943.28;4230777;28;20035;-64
2023/10/14 06:58:33;;;;;;;4.22;1.95;;;;;;;19.47;63.69;99943.47;4232153;28;20031;-64
2023/10/14 07:00:37;;;;;;;7.45;1.75;;;;;;;19.52;63.68;99948.59;4227859;28;20046;-64
2023/10/14 07:02:40;;;;;;;6.57;1.58;;;;;;;19.57;63.53;99951.97;4230309;28;20114;-64
2023/10/14 07:04:44;;;;;;;3.92;1.42;;;;;;;19.59;63.59;99951.94;4232024;28;20042;-65
2023/10/14 07:06:48;;;;;;;2.80;1.27;;;;;;;19.56;63.37;99968.69;4231866;28;20040;-64
2023/10/14 07:08:52;;;;;;;3.17;1.50;;;;;;;19.50;63.44;99968.91;4221542;28;20587;-64
2023/10/14 07:10:55;;;;;;;6.05;1.50;;;;;;;19.53;63.55;99972.28;4234253;27;20032;-64
2023/10/14 07:13:00;;;;;;;2.28;0.65;;;;;;;19.60;62.23;99986.16;4235263;27;20040;-64
2023/10/14 07:15:05;;;;;;;4.78;0.88;;;;;;;19.51;61.87;99983.81;4230704;28;20485;-64
2023/10/14 07:17:08;;;;;;;0.98;0.50;;;;;;;19.44;61.07;99983.13;4231888;28;20458;-64
2023/10/14 07:19:11;;;;;;;0.85;0.50;;;;;;;19.46;61.27;99983.94;4222435;28;20035;-64
2023/10/14 07:21:15;;;;;;;5.20;0.70;;;;;;;19.39;61.01;99990.31;4232322;28;20035;-65
2023/10/14 07:23:20;;;;;;;5.68;0.60;;;;;;;19.40;60.98;99994.66;4227274;27;20126;-69
2023/10/14 07:25:23;;;;;;;1.58;0.40;;;;;;;19.41;60.40;99991.13;4229271;27;20035;-69
2023/10/14 07:27:25;;;;;;;2.60;0.57;;;;;;;19.35;60.89;99992.16;4235066;27;20032;-68
2023/10/14 07:29:28;;;;;;;3.83;0.45;;;;;;;19.38;61.01;100006.16;4232420;27;20064;-68
2023/10/14 07:31:31;;;;;;;0.30;0.30;;;;;;;19.38;60.46;100012.31;4230649;28;20118;-67
2023/10/14 07:33:36;;;;;;;1.63;0.53;;;;;;;19.43;60.85;100014.81;4229542;28;20061;-68
2023/10/14 07:35:40;;;;;;;2.05;0.65;;;;;;;19.44;60.76;100014.75;4232987;27;20042;-68
2023/10/14 07:37:44;;;;;;;0.30;0.30;;;;;;;19.38;59.89;100020.22;4231588;27;20088;-67
2023/10/14 07:39:52;;;;;;;1.08;0.35;;;;;;;19.43;59.77;100028.00;4225946;27;20138;-66
2023/10/14 07:41:56;;;;;;;1.40;0.50;;;;;;;19.36;59.53;100029.94;4231036;28;20061;-68
2023/10/14 07:43:59;;;;;;;1.08;0.20;;;;;;;19.38;59.47;100030.75;4231676;28;20039;-66
2023/10/14 07:46:02;;;;;;;4.28;0.57;;;;;;;19.52;59.13;100032.97;4228333;27;20035;-66
2023/10/14 07:48:09;;;;;;;0.73;0.38;;;;;;;19.48;59.07;100040.13;4230100;28;20150;-65
2023/10/14 07:50:11;;;;;;;0.75;0.30;;;;;;;19.33;59.28;100043.19;4228167;28;20040;-69
2023/10/14 07:52:15;;;;;;;0.85;0.43;;;;;;;19.17;59.52;100054.19;4231429;28;20036;-67
2023/10/14 07:54:21;;;;;;;0.63;0.50;;;;;;;19.15;59.78;100042.81;4232721;27;20035;-67
2023/10/14 07:56:24;;;;;;;1.35;0.40;;;;;;;19.29;59.64;100042.44;4229306;27;20342;-69
2023/10/14 07:58:28;;;;;;;0.38;0.28;;;;;;;19.31;59.98;100045.03;4225643;27;20118;-67
2023/10/14 08:00:37;;;;;;;1.15;0.40;;;;;;;19.44;59.40;100049.03;4227632;28;20032;-67
2023/10/14 08:02:41;;;;;;;2.55;0.57;;;;;;;19.70;58.44;100060.59;4223726;27;20045;-67
2023/10/14 08:04:46;;;;;;;3.22;0.40;;;;;;;19.85;57.23;100075.13;4222172;27;20042;-66
2023/10/14 08:06:52;;;;;;;3.45;0.70;;;;;;;19.70;57.80;100068.50;4229502;28;20036;-66
2023/10/14 08:08:55;;;;;;;6.18;1.25;;;;;;;19.33;58.94;100082.72;4230056;27;20118;-66
2023/10/14 08:11:00;;;;;;;5.28;1.08;;;;;;;19.11;59.04;100091.22;4230582;28;20032;-66
2023/10/14 08:13:05;;;;;;;5.20;0.45;;;;;;;19.08;58.72;100093.94;4227176;28;20050;-67
2023/10/14 08:15:07;;;;;;;;;;;;;;;18.97;58.56;100096.88;4231067;27;20065;-66
2023/10/14 08:17:12;;;;;;;3.22;0.73;;;;;;;18.96;58.06;100099.56;4209627;28;20378;-66
2023/10/14 08:19:16;;;;;;;1.20;0.43;;;;;;;18.91;57.65;100106.69;4233145;27;20032;-67
2023/10/14 08:21:23;;;;;;;1.27;0.40;;;;;;;18.96;56.75;100107.47;4228885;27;20036;-67
2023/10/14 08:23:28;;;;;;;1.77;0.40;;;;;;;18.93;55.97;100107.53;4231694;27;20063;-67
2023/10/14 08:25:34;;;;;;;2.50;0.30;;;;;;;18.90;55.91;100121.66;4226501;27;20039;-66
2023/10/14 08:27:38;;;;;;;0.82;0.43;;;;;;;18.91;55.22;100112.84;4232123;27;20097;-67
2023/10/14 08:29:44;;;;;;;1.27;0.30;;;;;;;18.99;54.73;100120.53;4221795;27;20040;-67
2023/10/14 08:31:51;;;;;;;0.95;0.50;;;;;;;18.73;56.02;100118.53;4231558;27;20548;-66
2023/10/14 08:33:55;;;;;;;1.05;0.40;;;;;;;18.63;56.51;100113.50;4231146;27;20058;-67
2023/10/14 08:35:58;;;;;;;0.47;0.28;;;;;;;18.86;55.79;100121.75;4226061;28;20443;-67
2023/10/14 08:38:01;;;;;;;0.28;0.25;;;;;;;18.86;55.17;100119.09;4226534;28;20078;-67
2023/10/14 08:40:06;;;;;;;0.30;0.30;;;;;;;18.68;55.81;100121.28;4227823;28;20047;-67
2023/10/14 08:42:09;;;;;;;;;;;;;;;18.72;55.17;100119.44;4222834;28;20046;-66
2023/10/14 08:44:18;;;;;;;0.30;0.30;;;;;;;18.75;55.26;100128.13;4220106;27;20393;-67
2023/10/14 08:46:31;;;;;;;1.80;0.40;;;;;;;18.75;55.01;100122.00;4224031;27;20039;-67
2023/10/14 08:48:37;;;;;;;1.05;0.30;;;;;;;18.71;55.27;100126.47;4226518;28;20593;-67
2023/10/14 08:50:40;;;;;;;1.65;0.77;;;;;;;18.75;54.32;100128.13;4229418;28;20031;-67
2023/10/14 08:52:45;;;;;;;0.63;0.37;;;;;;;18.90;54.49;100124.28;4226398;27;20036;-66
2023/10/14 08:54:48;;;;;;;;;;;;;;;19.06;54.83;100131.81;4234988;27;20329;-67
2023/10/14 08:56:55;;;;;;;2.33;0.30;;;;;;;19.05;55.61;100137.97;4223402;28;20392;-68
2023/10/14 08:58:58;;;;;;;0.50;0.40;;;;;;;19.00;56.38;100144.22;4223384;28;20122;-68
2023/10/14 09:01:05;;;;;;;1.17;0.50;;;;;;;19.07;56.28;100149.31;4228932;28;20043;-68
2023/10/14 09:03:09;;;;;;;4.20;0.65;;;;;;;18.98;56.39;100148.66;4222276;28;20516;-68
2023/10/14 09:05:16;;;;;;;1.25;0.40;;;;;;;18.97;56.26;100156.63;4227972;28;20622;-67
2023/10/14 09:07:23;;;;;;;1.48;0.50;;;;;;;18.82;55.94;100147.28;4222319;28;20042;-67
2023/10/14 09:09:25;;;;;;;2.40;0.50;;;;;;;18.56;56.59;100158.44;4226623;28;20064;-68
2023/10/14 09:11:33;;;;;;;0.80;0.50;;;;;;;18.38;56.95;100159.75;4219636;28;20044;-67
2023/10/14 09:13:37;;;;;;;1.00;0.50;;;;;;;18.32;56.18;100160.75;4222857;28;20055;-66
2023/10/14 09:15:41;;;;;;;1.95;0.85;;;;;;;18.30;56.00;100157.28;4226441;28;20032;-67
2023/10/14 09:17:45;;;;;;;;;;;;;;;18.44;55.97;100152.59;4227946;28;20081;-67
2023/10/14 09:19:50;;;;;;;3.08;0.70;;;;;;;18.28;56.28;100164.34;4219097;28;19927;-67
2023/10/14 09:21:57;;;;;;;1.88;0.63;;;;;;;18.40;55.79;100164.06;4225011;28;20084;-67
2023/10/14 09:24:07;;;;;;;2.28;0.98;;;;;;;18.42;54.98;100174.56;4226892;28;20102;-66
2023/10/14 09:26:11;;;;;;;1.23;0.50;;;;;;;18.25;55.91;100174.94;4225887;28;20044;-67
2023/10/14 09:28:13;;;;;;;4.32;0.75;;;;;;;18.21;55.77;100178.53;4222614;28;20046;-66
2023/10/14 09:30:18;;;;;;;3.83;0.85;;;;;;;18.13;55.70;100183.97;4214817;28;20493;-66
2023/10/14 09:32:21;;;;;;;1.58;0.60;;;;;;;18.18;55.76;100179.47;4212431;28;20044;-68
2023/10/14 09:34:27;;;;;;;1.95;0.90;;;;;;;18.35;55.31;100171.19;4218522;28;20092;-66
2023/10/14 09:36:33;;;;;;;3.42;0.80;;;;;;;18.41;54.95;100171.09;4221424;28;20505;-66
2023/10/14 09:38:36;;;;;;;4.65;0.60;;;;;;;18.47;55.05;100178.84;4228454;28;20043;-66
2023/10/14 09:40:42;;;;;;;1.15;0.70;;;;;;;18.67;55.30;100182.75;4227874;28;20061;-66
2023/10/14 09:42:48;;;;;;;1.13;0.50;;;;;;;18.89;54.31;100172.59;4233069;28;20404;-66
2023/10/14 09:44:53;;;;;;;2.80;0.55;;;;;;;18.99;53.05;100178.50;4231136;28;20088;-66
2023/10/14 09:46:57;;;;;;;1.42;0.82;;;;;;;18.83;53.16;100175.34;4207807;28;20139;-66
2023/10/14 09:49:01;;;;;;;3.10;1.05;;;;;;;18.79;52.87;100174.56;4228212;27;20485;-66
2023/10/14 09:51:06;;;;;;;2.77;0.77;;;;;;;18.81;53.16;100172.75;4231976;28;20561;-66
2023/10/14 09:53:13;;;;;;;5.53;1.10;;;;;;;18.67;53.40;100182.75;4228758;27;20866;-67